Time;durP1;ratioP1;P1;durP2;ratioP2;P2;SDS_P1;SDS_P2;PMS_P1;PMS_P2;Temp;Humidity;BMP_temperature;BMP_pressure;BME280_temperature;BME280_humidity;BME280_pressure;Samples;Min_cycle;Max_cycle;Signal;HPM_P1;HPM_P2
2021/11/26 08:46:24;;;;;;;15.68;11.68;;;;;;;;;;10525056;28;20025;-85
2021/11/26 08:57:17;;;;;;;16.95;11.85;;;;;;;;;;10511432;28;20060;-84
2021/11/26 09:02:18;;;;;;;10.23;7.47;;;;;;;;;;10496629;28;20096;-83
2021/11/26 09:07:22;;;;;;;10.48;7.07;;;;;;;;;;10497388;28;20028;-82
2021/11/26 09:12:25;;;;;;;10.00;7.18;;;;;;;;;;10513056;28;20037;-85
2021/11/26 09:17:27;;;;;;;9.65;7.28;;;;;;;;;;10497225;28;20160;-84
2021/11/26 09:22:30;;;;;;;8.55;6.82;;;;;;;;;;10482023;28;20025;-85
2021/11/26 09:27:41;;;;;;;11.00;7.10;;;;;;;;;;10514578;28;20087;-84
2021/11/26 09:32:43;;;;;;;9.70;6.95;;;;;;;;;;10495332;28;20025;-84
2021/11/26 09:37:44;;;;;;;9.60;6.65;;;;;;;;;;10493064;28;20028;-85
2021/11/26 09:42:45;;;;;;;10.45;6.72;;;;;;;;;;10495443;28;20462;-85
2021/11/26 09:47:55;;;;;;;8.20;5.65;;;;;;;;;;10511513;28;20107;-87
2021/11/26 09:53:15;;;;;;;8.63;5.63;;;;;;;;;;10493306;28;20371;-84
2021/11/26 09:58:22;;;;;;;8.20;5.18;;;;;;;;;;10513031;28;20032;-86
2021/11/26 10:03:35;;;;;;;7.45;5.20;;;;;;;;;;10511917;28;20020;-86
2021/11/26 10:08:36;;;;;;;9.82;5.00;;;;;;;;;;10525491;28;20017;-85
2021/11/26 10:13:37;;;;;;;8.27;5.40;;;;;;;;;;10521962;28;20386;-86
2021/11/26 10:18:46;;;;;;;8.05;5.07;;;;;;;;;;10513165;28;20032;-87
2021/11/26 10:23:50;;;;;;;9.57;5.05;;;;;;;;;;10510384;28;20440;-87
2021/11/26 10:28:54;;;;;;;9.93;5.10;;;;;;;;;;10496433;28;20024;-86
2021/11/26 10:33:56;;;;;;;7.88;4.45;;;;;;;;;;10492817;28;20028;-87
2021/11/26 10:39:31;;;;;;;5.25;3.65;;;;;;;;;;10490063;28;20060;-86
2021/11/26 11:25:05;;;;;;;6.32;3.55;;;;;;;;;;10381239;28;20030;-87
2021/11/26 12:56:13;;;;;;;7.90;3.40;;;;;;;;;;10484858;28;20046;-89
2021/11/26 13:24:12;;;;;;;3.90;2.47;;;;;;;;;;10526872;28;20035;-86
2021/11/26 13:29:37;;;;;;;4.65;2.60;;;;;;;;;;10550766;28;20032;-87
2021/11/26 13:57:49;;;;;;;5.32;2.45;;;;;;;;;;10460551;28;20112;-84
2021/11/26 14:20:24;;;;;;;4.75;2.58;;;;;;;;;;10553668;28;20052;-87
2021/11/26 14:42:42;;;;;;;3.80;1.90;;;;;;;;;;10554194;28;20040;-89
2021/11/26 18:07:45;;;;;;;2.55;1.67;;;;;;;;;;10498241;28;20091;-87
2021/11/26 18:19:01;;;;;;;5.00;2.47;;;;;;;;;;10421073;28;20053;-87
2021/11/26 18:24:36;;;;;;;3.65;1.73;;;;;;;;;;10405420;28;20018;-87
2021/11/26 18:29:39;;;;;;;3.58;1.85;;;;;;;;;;10387833;28;20030;-87
2021/11/26 18:35:07;;;;;;;4.47;2.50;;;;;;;;;;10385656;28;20065;-88
2021/11/26 18:51:22;;;;;;;8.00;5.32;;;;;;;;;;10417184;28;20123;-88
2021/11/26 19:08:05;;;;;;;11.05;7.18;;;;;;;;;;10428243;28;20029;-88
2021/11/26 19:19:14;;;;;;;9.52;6.53;;;;;;;;;;10431684;28;20523;-86
2021/11/26 19:30:30;;;;;;;10.75;7.15;;;;;;;;;;10344608;28;20038;-86
2021/11/26 19:41:40;;;;;;;9.05;5.88;;;;;;;;;;10421980;28;20037;-86
2021/11/26 19:46:44;;;;;;;12.23;9.18;;;;;;;;;;10424067;28;20032;-86
2021/11/26 19:52:15;;;;;;;10.10;7.47;;;;;;;;;;10424926;28;20476;-86
2021/11/26 19:57:37;;;;;;;9.77;7.47;;;;;;;;;;10446256;28;20037;-87
2021/11/26 20:03:04;;;;;;;11.50;7.82;;;;;;;;;;10441739;28;20438;-84
2021/11/26 20:08:26;;;;;;;7.13;5.03;;;;;;;;;;10432757;28;20093;-85
2021/11/26 20:13:28;;;;;;;9.73;6.93;;;;;;;;;;10451271;28;20083;-86
2021/11/26 20:18:50;;;;;;;9.75;7.00;;;;;;;;;;10445052;28;20060;-85
2021/11/26 20:24:25;;;;;;;12.85;9.15;;;;;;;;;;10462122;22;20068;-86
2021/11/26 20:35:43;;;;;;;19.02;13.88;;;;;;;;;;10439488;28;20038;-86
2021/11/26 20:41:09;;;;;;;8.07;6.45;;;;;;;;;;10438737;28;20068;-86
2021/11/26 20:52:26;;;;;;;13.13;9.48;;;;;;;;;;10445340;28;20013;-86
2021/11/26 20:57:27;;;;;;;13.65;9.70;;;;;;;;;;10429853;28;20033;-86
2021/11/26 21:02:28;;;;;;;;;;;;;;;;;;10423123;28;20064;-87
2021/11/26 21:07:29;;;;;;;13.13;9.00;;;;;;;;;;10449323;28;19912;-87
2021/11/26 21:12:30;;;;;;;7.07;5.45;;;;;;;;;;10422935;28;20037;-86
2021/11/26 21:17:31;;;;;;;4.35;3.30;;;;;;;;;;10410228;28;20033;-87
2021/11/26 21:22:32;;;;;;;;;;;;;;;;;;10447051;28;20029;-87
2021/11/26 21:27:33;;;;;;;5.60;4.03;;;;;;;;;;10447068;28;19909;-86
2021/11/26 21:32:34;;;;;;;;;;;;;;;;;;10422064;28;20033;-87
2021/11/26 21:42:43;;;;;;;4.60;3.25;;;;;;;;;;10394663;28;20050;-85
2021/11/26 21:47:44;;;;;;;6.30;4.53;;;;;;;;;;10381385;28;20034;-85
